LBSF/SOF METAR and TAF weather

Enter ICAO airport designator
Station Type Date Time Source
LBSF METAR 2020/04/06 13:30 UTC NOAA

LBSF 061330Z 06014KT CAVOK 11/M04 Q1029 NOSIG


Station Type Date Time Source
LBSF Decoded METAR 2020/04/06 13:30 UTC NOAA

Sofia Observ. , Bulgaria (LBSF) 42-39N 023-23E 595M
Apr 06, 2020 - 09:30 AM EDT / 2020.04.06 1330 UTC
Wind: from the ENE (060 degrees) at 16 MPH (14 KT):0
Visibility: greater than 7 mile(s):0
Temperature: 51 F (11 C)
Dew Point: 24 F (-4 C)
Relative Humidity: 34%
Pressure (altimeter): 30.39 in. Hg (1029 hPa)
ob: LBSF 061330Z 06014KT CAVOK 11/M04 Q1029 NOSIG
cycle: 13

Station Type Date Time Source
LBSF TAF 2020/04/06 12:18 UTC NOAA

TAF LBSF 061100Z 0612/0712 05014KT CAVOK
BECMG 0618/0620 12008KT
BECMG 0708/0710 06014KT

Example: see airport list